sensor_id;sensor_type;location;lat;lon;timestamp;pressure;altitude;pressure_sealevel;temperature;humidity
12203;BME280;6164;42.178;24.622;2024-03-23T00:54:58;99839.13;;;5.66;100.00
12203;BME280;6164;42.178;24.622;2024-03-23T00:57:24;99835.25;;;5.70;100.00
12203;BME280;6164;42.178;24.622;2024-03-23T00:59:50;99844.25;;;5.77;100.00
12203;BME280;6164;42.178;24.622;2024-03-23T01:02:16;99837.09;;;5.79;100.00
12203;BME280;6164;42.178;24.622;2024-03-23T01:04:42;99839.00;;;5.77;100.00
12203;BME280;6164;42.178;24.622;2024-03-23T01:07:08;99837.38;;;5.76;100.00
12203;BME280;6164;42.178;24.622;2024-03-23T01:09:34;99835.13;;;5.72;100.00
12203;BME280;6164;42.178;24.622;2024-03-23T01:12:01;99835.78;;;5.64;100.00
12203;BME280;6164;42.178;24.622;2024-03-23T01:14:28;99837.97;;;5.59;100.00
12203;BME280;6164;42.178;24.622;2024-03-23T01:16:54;99838.63;;;5.52;100.00
12203;BME280;6164;42.178;24.622;2024-03-23T01:19:20;99841.88;;;5.44;100.00
12203;BME280;6164;42.178;24.622;2024-03-23T01:21:46;99834.81;;;5.35;100.00
12203;BME280;6164;42.178;24.622;2024-03-23T01:24:12;99842.38;;;5.28;100.00
12203;BME280;6164;42.178;24.622;2024-03-23T01:26:38;99835.41;;;5.18;100.00
12203;BME280;6164;42.178;24.622;2024-03-23T01:29:05;99839.34;;;5.12;100.00
12203;BME280;6164;42.178;24.622;2024-03-23T01:31:31;99849.50;;;5.06;100.00
12203;BME280;6164;42.178;24.622;2024-03-23T01:33:57;99851.91;;;4.98;100.00
12203;BME280;6164;42.178;24.622;2024-03-23T01:36:23;99844.72;;;4.90;100.00
12203;BME280;6164;42.178;24.622;2024-03-23T01:38:49;99842.72;;;4.83;100.00
12203;BME280;6164;42.178;24.622;2024-03-23T01:41:15;99843.94;;;4.79;100.00
12203;BME280;6164;42.178;24.622;2024-03-23T01:43:41;99845.25;;;4.73;100.00
12203;BME280;6164;42.178;24.622;2024-03-23T01:46:09;99841.25;;;4.69;100.00
12203;BME280;6164;42.178;24.622;2024-03-23T01:48:34;99843.16;;;4.67;100.00
12203;BME280;6164;42.178;24.622;2024-03-23T01:51:01;99848.38;;;4.67;100.00
12203;BME280;6164;42.178;24.622;2024-03-23T01:53:26;99840.41;;;4.69;100.00
12203;BME280;6164;42.178;24.622;2024-03-23T01:55:53;99838.06;;;4.66;100.00
12203;BME280;6164;42.178;24.622;2024-03-23T01:58:19;99836.75;;;4.60;100.00
12203;BME280;6164;42.178;24.622;2024-03-23T02:00:46;99836.44;;;4.54;100.00
12203;BME280;6164;42.178;24.622;2024-03-23T02:03:25;99836.09;;;4.47;100.00
12203;BME280;6164;42.178;24.622;2024-03-23T02:05:52;99842.34;;;4.24;100.00
12203;BME280;6164;42.178;24.622;2024-03-23T02:08:18;99834.38;;;4.26;100.00
12203;BME280;6164;42.178;24.622;2024-03-23T02:10:46;99838.06;;;4.23;100.00
12203;BME280;6164;42.178;24.622;2024-03-23T02:13:13;99832.25;;;4.20;100.00
12203;BME280;6164;42.178;24.622;2024-03-23T02:15:40;99835.34;;;4.14;100.00
12203;BME280;6164;42.178;24.622;2024-03-23T02:18:06;99838.69;;;4.04;100.00
12203;BME280;6164;42.178;24.622;2024-03-23T02:20:35;99834.31;;;3.94;100.00
12203;BME280;6164;42.178;24.622;2024-03-23T02:23:01;99837.53;;;3.86;100.00
12203;BME280;6164;42.178;24.622;2024-03-23T02:25:28;99832.81;;;3.80;100.00
12203;BME280;6164;42.178;24.622;2024-03-23T02:27:53;99840.16;;;3.75;100.00
12203;BME280;6164;42.178;24.622;2024-03-23T02:30:20;99837.88;;;3.71;100.00
12203;BME280;6164;42.178;24.622;2024-03-23T02:32:45;99841.09;;;3.63;100.00
12203;BME280;6164;42.178;24.622;2024-03-23T02:35:12;99838.03;;;3.47;100.00
12203;BME280;6164;42.178;24.622;2024-03-23T02:37:37;99839.66;;;3.37;100.00
12203;BME280;6164;42.178;24.622;2024-03-23T02:40:06;99833.50;;;3.27;100.00
12203;BME280;6164;42.178;24.622;2024-03-23T02:42:31;99840.94;;;3.21;100.00
12203;BME280;6164;42.178;24.622;2024-03-23T02:44:58;99843.06;;;3.16;100.00
12203;BME280;6164;42.178;24.622;2024-03-23T02:47:23;99840.69;;;3.13;100.00
12203;BME280;6164;42.178;24.622;2024-03-23T02:49:50;99843.25;;;3.02;100.00
12203;BME280;6164;42.178;24.622;2024-03-23T02:52:15;99840.06;;;2.98;100.00
12203;BME280;6164;42.178;24.622;2024-03-23T02:54:42;99847.41;;;2.93;100.00
12203;BME280;6164;42.178;24.622;2024-03-23T02:57:11;99843.34;;;2.89;100.00
12203;BME280;6164;42.178;24.622;2024-03-23T02:59:37;99837.34;;;2.65;100.00
12203;BME280;6164;42.178;24.622;2024-03-23T03:02:03;99838.47;;;2.50;100.00
12203;BME280;6164;42.178;24.622;2024-03-23T03:04:30;99833.38;;;2.48;100.00
12203;BME280;6164;42.178;24.622;2024-03-23T03:06:55;99840.06;;;2.63;100.00
12203;BME280;6164;42.178;24.622;2024-03-23T03:09:22;99838.66;;;2.70;100.00
12203;BME280;6164;42.178;24.622;2024-03-23T03:11:47;99838.44;;;2.73;100.00
12203;BME280;6164;42.178;24.622;2024-03-23T03:14:15;99846.94;;;2.64;100.00
12203;BME280;6164;42.178;24.622;2024-03-23T03:16:41;99840.38;;;2.59;100.00
12203;BME280;6164;42.178;24.622;2024-03-23T03:19:07;99832.44;;;2.60;100.00
12203;BME280;6164;42.178;24.622;2024-03-23T03:21:32;99841.13;;;2.61;100.00
12203;BME280;6164;42.178;24.622;2024-03-23T03:23:59;99840.53;;;2.68;100.00
12203;BME280;6164;42.178;24.622;2024-03-23T03:26:25;99841.38;;;2.69;100.00
12203;BME280;6164;42.178;24.622;2024-03-23T03:28:51;99843.25;;;2.67;100.00
12203;BME280;6164;42.178;24.622;2024-03-23T03:31:18;99849.09;;;2.70;100.00
12203;BME280;6164;42.178;24.622;2024-03-23T03:33:44;99842.22;;;2.69;100.00
12203;BME280;6164;42.178;24.622;2024-03-23T03:36:10;99837.91;;;2.57;100.00
12203;BME280;6164;42.178;24.622;2024-03-23T03:38:36;99843.84;;;2.59;100.00
12203;BME280;6164;42.178;24.622;2024-03-23T03:41:03;99846.78;;;2.55;100.00
12203;BME280;6164;42.178;24.622;2024-03-23T03:43:31;99841.22;;;2.36;100.00
12203;BME280;6164;42.178;24.622;2024-03-23T03:45:57;99846.66;;;2.33;100.00
12203;BME280;6164;42.178;24.622;2024-03-23T03:48:25;99848.88;;;2.26;100.00
12203;BME280;6164;42.178;24.622;2024-03-23T03:50:51;99859.91;;;2.30;100.00
12203;BME280;6164;42.178;24.622;2024-03-23T03:53:18;99850.59;;;2.15;100.00
12203;BME280;6164;42.178;24.622;2024-03-23T03:55:43;99853.41;;;2.12;100.00
12203;BME280;6164;42.178;24.622;2024-03-23T03:58:10;99855.56;;;2.18;100.00
12203;BME280;6164;42.178;24.622;2024-03-23T04:00:35;99862.97;;;2.24;100.00
12203;BME280;6164;42.178;24.622;2024-03-23T04:03:02;99856.06;;;2.23;100.00
12203;BME280;6164;42.178;24.622;2024-03-23T04:05:29;99859.97;;;2.17;100.00
12203;BME280;6164;42.178;24.622;2024-03-23T04:07:55;99866.81;;;2.18;100.00
12203;BME280;6164;42.178;24.622;2024-03-23T04:10:20;99864.13;;;2.20;100.00
12203;BME280;6164;42.178;24.622;2024-03-23T04:12:47;99865.75;;;2.21;100.00
12203;BME280;6164;42.178;24.622;2024-03-23T04:15:13;99858.69;;;2.23;100.00
12203;BME280;6164;42.178;24.622;2024-03-23T04:17:39;99867.22;;;2.25;100.00
12203;BME280;6164;42.178;24.622;2024-03-23T04:20:06;99867.16;;;2.14;100.00
12203;BME280;6164;42.178;24.622;2024-03-23T04:22:37;99861.66;;;2.06;100.00
12203;BME280;6164;42.178;24.622;2024-03-23T04:25:03;99870.94;;;1.97;100.00
12203;BME280;6164;42.178;24.622;2024-03-23T04:27:31;99878.97;;;1.94;100.00
12203;BME280;6164;42.178;24.622;2024-03-23T04:29:57;99878.16;;;1.94;100.00
12203;BME280;6164;42.178;24.622;2024-03-23T04:32:23;99871.38;;;1.91;100.00
12203;BME280;6164;42.178;24.622;2024-03-23T04:34:49;99876.56;;;1.91;100.00
12203;BME280;6164;42.178;24.622;2024-03-23T04:37:15;99883.06;;;1.86;100.00
12203;BME280;6164;42.178;24.622;2024-03-23T04:39:44;99882.09;;;1.87;100.00
12203;BME280;6164;42.178;24.622;2024-03-23T04:42:11;99888.25;;;1.86;100.00
12203;BME280;6164;42.178;24.622;2024-03-23T04:44:37;99884.31;;;1.93;100.00
12203;BME280;6164;42.178;24.622;2024-03-23T04:47:04;99882.19;;;1.98;100.00
12203;BME280;6164;42.178;24.622;2024-03-23T04:49:30;99886.03;;;2.05;100.00
12203;BME280;6164;42.178;24.622;2024-03-23T04:51:57;99885.63;;;1.98;100.00
12203;BME280;6164;42.178;24.622;2024-03-23T04:54:23;99881.47;;;1.96;100.00
12203;BME280;6164;42.178;24.622;2024-03-23T04:56:50;99885.19;;;2.04;100.00
12203;BME280;6164;42.178;24.622;2024-03-23T04:59:16;99885.69;;;2.09;100.00
12203;BME280;6164;42.178;24.622;2024-03-23T05:01:42;99884.78;;;2.10;100.00
12203;BME280;6164;42.178;24.622;2024-03-23T05:04:08;99884.84;;;2.21;100.00
12203;BME280;6164;42.178;24.622;2024-03-23T05:06:34;99884.50;;;2.26;100.00
12203;BME280;6164;42.178;24.622;2024-03-23T05:09:00;99879.38;;;2.37;100.00
12203;BME280;6164;42.178;24.622;2024-03-23T05:11:28;99877.44;;;2.51;100.00
12203;BME280;6164;42.178;24.622;2024-03-23T05:13:56;99878.31;;;2.63;100.00
12203;BME280;6164;42.178;24.622;2024-03-23T05:16:21;99878.09;;;2.66;100.00
12203;BME280;6164;42.178;24.622;2024-03-23T05:18:48;99876.09;;;2.69;100.00
12203;BME280;6164;42.178;24.622;2024-03-23T05:21:13;99871.00;;;2.68;100.00
12203;BME280;6164;42.178;24.622;2024-03-23T05:23:40;99870.63;;;2.61;100.00
12203;BME280;6164;42.178;24.622;2024-03-23T05:26:05;99871.72;;;2.70;100.00
12203;BME280;6164;42.178;24.622;2024-03-23T05:28:32;99869.72;;;2.73;100.00
12203;BME280;6164;42.178;24.622;2024-03-23T05:30:58;99865.94;;;2.78;100.00
12203;BME280;6164;42.178;24.622;2024-03-23T05:33:25;99869.31;;;2.91;100.00
12203;BME280;6164;42.178;24.622;2024-03-23T05:35:55;99875.41;;;3.02;100.00
12203;BME280;6164;42.178;24.622;2024-03-23T05:38:22;99870.78;;;3.06;100.00
12203;BME280;6164;42.178;24.622;2024-03-23T05:40:52;99873.16;;;3.09;100.00
12203;BME280;6164;42.178;24.622;2024-03-23T05:43:19;99874.44;;;3.03;100.00
12203;BME280;6164;42.178;24.622;2024-03-23T05:45:44;99872.06;;;3.00;100.00
12203;BME280;6164;42.178;24.622;2024-03-23T05:48:12;99876.66;;;2.97;100.00
12203;BME280;6164;42.178;24.622;2024-03-23T05:50:37;99870.97;;;2.92;100.00
12203;BME280;6164;42.178;24.622;2024-03-23T05:53:04;99873.09;;;2.87;100.00
12203;BME280;6164;42.178;24.622;2024-03-23T05:55:30;99870.50;;;2.87;100.00
12203;BME280;6164;42.178;24.622;2024-03-23T05:57:57;99874.88;;;2.86;100.00
12203;BME280;6164;42.178;24.622;2024-03-23T06:00:22;99873.09;;;2.87;100.00
12203;BME280;6164;42.178;24.622;2024-03-23T06:02:51;99871.69;;;2.94;100.00
12203;BME280;6164;42.178;24.622;2024-03-23T06:05:18;99879.28;;;2.97;100.00
12203;BME280;6164;42.178;24.622;2024-03-23T06:07:44;99878.25;;;3.10;100.00
12203;BME280;6164;42.178;24.622;2024-03-23T06:10:10;99867.88;;;3.21;100.00
12203;BME280;6164;42.178;24.622;2024-03-23T06:12:36;99875.59;;;3.34;100.00
12203;BME280;6164;42.178;24.622;2024-03-23T06:15:02;99873.00;;;3.45;100.00
12203;BME280;6164;42.178;24.622;2024-03-23T06:17:28;99870.38;;;3.56;100.00
12203;BME280;6164;42.178;24.622;2024-03-23T06:19:54;99874.31;;;3.72;100.00
12203;BME280;6164;42.178;24.622;2024-03-23T06:22:22;99864.25;;;3.90;100.00
12203;BME280;6164;42.178;24.622;2024-03-23T06:24:47;99877.97;;;4.14;100.00
12203;BME280;6164;42.178;24.622;2024-03-23T06:27:14;99869.41;;;4.34;100.00
12203;BME280;6164;42.178;24.622;2024-03-23T06:29:39;99865.19;;;4.54;100.00
12203;BME280;6164;42.178;24.622;2024-03-23T06:32:06;99862.50;;;4.76;100.00
12203;BME280;6164;42.178;24.622;2024-03-23T06:34:31;99870.09;;;4.99;100.00
12203;BME280;6164;42.178;24.622;2024-03-23T06:36:58;99866.53;;;5.21;100.00
12203;BME280;6164;42.178;24.622;2024-03-23T06:39:25;99866.81;;;5.38;100.00
12203;BME280;6164;42.178;24.622;2024-03-23T06:41:51;99868.69;;;5.57;100.00
12203;BME280;6164;42.178;24.622;2024-03-23T06:44:17;99856.06;;;5.72;100.00
12203;BME280;6164;42.178;24.622;2024-03-23T06:46:44;99859.22;;;5.86;100.00
12203;BME280;6164;42.178;24.622;2024-03-23T06:49:09;99860.91;;;5.97;100.00
12203;BME280;6164;42.178;24.622;2024-03-23T06:51:36;99860.41;;;6.12;100.00
12203;BME280;6164;42.178;24.622;2024-03-23T06:54:02;99857.97;;;6.30;100.00
12203;BME280;6164;42.178;24.622;2024-03-23T06:56:30;99855.25;;;6.50;100.00
12203;BME280;6164;42.178;24.622;2024-03-23T06:58:56;99861.22;;;6.62;100.00
12203;BME280;6164;42.178;24.622;2024-03-23T07:01:22;99852.50;;;6.81;100.00
12203;BME280;6164;42.178;24.622;2024-03-23T07:03:48;99845.59;;;6.99;100.00
12203;BME280;6164;42.178;24.622;2024-03-23T07:06:14;99842.94;;;7.18;100.00
12203;BME280;6164;42.178;24.622;2024-03-23T07:08:40;99838.09;;;7.32;100.00
12203;BME280;6164;42.178;24.622;2024-03-23T07:11:06;99841.09;;;7.47;100.00
12203;BME280;6164;42.178;24.622;2024-03-23T07:13:33;99840.91;;;7.58;100.00
12203;BME280;6164;42.178;24.622;2024-03-23T07:16:00;99836.94;;;7.81;100.00
12203;BME280;6164;42.178;24.622;2024-03-23T07:18:25;99835.31;;;8.07;100.00
12203;BME280;6164;42.178;24.622;2024-03-23T07:20:52;99837.94;;;8.34;100.00
12203;BME280;6164;42.178;24.622;2024-03-23T07:23:21;99836.25;;;8.60;100.00
12203;BME280;6164;42.178;24.622;2024-03-23T07:25:55;99834.38;;;8.88;100.00
12203;BME280;6164;42.178;24.622;2024-03-23T07:28:21;99830.25;;;9.11;100.00
12203;BME280;6164;42.178;24.622;2024-03-23T07:30:49;99822.50;;;9.27;100.00
12203;BME280;6164;42.178;24.622;2024-03-23T07:33:23;99832.47;;;9.41;100.00
12203;BME280;6164;42.178;24.622;2024-03-23T07:35:50;99830.16;;;9.64;100.00
12203;BME280;6164;42.178;24.622;2024-03-23T07:38:15;99835.69;;;9.86;97.25
12203;BME280;6164;42.178;24.622;2024-03-23T07:40:42;99829.34;;;10.05;95.89
12203;BME280;6164;42.178;24.622;2024-03-23T07:43:07;99832.41;;;10.18;94.94
12203;BME280;6164;42.178;24.622;2024-03-23T07:45:34;99836.72;;;10.35;92.70
12203;BME280;6164;42.178;24.622;2024-03-23T07:48:01;99840.22;;;10.43;90.75
12203;BME280;6164;42.178;24.622;2024-03-23T07:50:27;99831.97;;;10.46;90.47
12203;BME280;6164;42.178;24.622;2024-03-23T07:52:52;99822.75;;;10.58;89.64
12203;BME280;6164;42.178;24.622;2024-03-23T07:55:19;99830.34;;;10.70;87.22
12203;BME280;6164;42.178;24.622;2024-03-23T07:57:44;99819.78;;;10.78;86.89
12203;BME280;6164;42.178;24.622;2024-03-23T08:00:11;99815.84;;;10.90;86.85
12203;BME280;6164;42.178;24.622;2024-03-23T08:02:38;99816.69;;;10.98;86.27
12203;BME280;6164;42.178;24.622;2024-03-23T08:05:06;99816.03;;;10.96;84.95
12203;BME280;6164;42.178;24.622;2024-03-23T08:07:33;99811.88;;;11.10;84.11
12203;BME280;6164;42.178;24.622;2024-03-23T08:09:59;99819.63;;;11.27;82.43
12203;BME280;6164;42.178;24.622;2024-03-23T08:12:25;99817.94;;;11.50;83.07
12203;BME280;6164;42.178;24.622;2024-03-23T08:14:51;99815.63;;;11.63;82.83
12203;BME280;6164;42.178;24.622;2024-03-23T08:17:17;99806.47;;;11.82;82.72
12203;BME280;6164;42.178;24.622;2024-03-23T08:19:43;99818.00;;;11.97;79.97
12203;BME280;6164;42.178;24.622;2024-03-23T08:22:10;99813.31;;;12.07;79.40
12203;BME280;6164;42.178;24.622;2024-03-23T08:24:39;99830.97;;;12.15;76.81
12203;BME280;6164;42.178;24.622;2024-03-23T08:27:05;99845.34;;;12.20;73.21
12203;BME280;6164;42.178;24.622;2024-03-23T08:29:31;99836.78;;;12.41;74.14
12203;BME280;6164;42.178;24.622;2024-03-23T08:31:57;99833.13;;;12.50;74.27
12203;BME280;6164;42.178;24.622;2024-03-23T08:34:23;99839.63;;;12.70;72.18
12203;BME280;6164;42.178;24.622;2024-03-23T08:36:49;99852.44;;;12.81;70.60
12203;BME280;6164;42.178;24.622;2024-03-23T08:39:17;99863.28;;;12.71;69.10
12203;BME280;6164;42.178;24.622;2024-03-23T08:41:43;99856.91;;;12.80;69.60
12203;BME280;6164;42.178;24.622;2024-03-23T08:44:11;99851.72;;;12.87;68.95
12203;BME280;6164;42.178;24.622;2024-03-23T08:46:37;99834.56;;;13.05;69.63
12203;BME280;6164;42.178;24.622;2024-03-23T08:49:03;99841.09;;;13.17;69.45
12203;BME280;6164;42.178;24.622;2024-03-23T08:51:29;99825.50;;;13.23;70.39
12203;BME280;6164;42.178;24.622;2024-03-23T08:53:55;99852.28;;;13.28;67.08
12203;BME280;6164;42.178;24.622;2024-03-23T08:56:22;99875.91;;;13.37;64.41
12203;BME280;6164;42.178;24.622;2024-03-23T08:58:48;99841.25;;;13.53;67.16
12203;BME280;6164;42.178;24.622;2024-03-23T09:01:14;99823.06;;;13.65;68.94
12203;BME280;6164;42.178;24.622;2024-03-23T09:03:41;99808.34;;;13.77;68.98
12203;BME280;6164;42.178;24.622;2024-03-23T09:06:06;99821.53;;;13.85;67.16
12203;BME280;6164;42.178;24.622;2024-03-23T09:08:33;99844.47;;;13.92;65.18
12203;BME280;6164;42.178;24.622;2024-03-23T09:11:06;99844.03;;;14.03;65.63
12203;BME280;6164;42.178;24.622;2024-03-23T09:13:34;99834.19;;;14.18;65.32
12203;BME280;6164;42.178;24.622;2024-03-23T09:15:59;99839.63;;;14.10;64.93
12203;BME280;6164;42.178;24.622;2024-03-23T09:18:26;99847.47;;;14.18;63.93
12203;BME280;6164;42.178;24.622;2024-03-23T09:20:52;99848.25;;;14.27;63.32
12203;BME280;6164;42.178;24.622;2024-03-23T09:23:19;99865.84;;;14.28;61.63
12203;BME280;6164;42.178;24.622;2024-03-23T09:25:45;99883.00;;;14.17;60.01
12203;BME280;6164;42.178;24.622;2024-03-23T09:28:11;99885.59;;;14.25;59.47
12203;BME280;6164;42.178;24.622;2024-03-23T09:30:38;99892.66;;;14.33;58.87
12203;BME280;6164;42.178;24.622;2024-03-23T09:33:07;99906.28;;;14.44;57.90
12203;BME280;6164;42.178;24.622;2024-03-23T09:35:36;99925.88;;;14.43;57.14
12203;BME280;6164;42.178;24.622;2024-03-23T09:38:02;99897.72;;;14.64;58.41
12203;BME280;6164;42.178;24.622;2024-03-23T09:40:28;99907.59;;;14.84;57.69
12203;BME280;6164;42.178;24.622;2024-03-23T09:42:54;99913.31;;;15.02;57.73
12203;BME280;6164;42.178;24.622;2024-03-23T09:45:21;99931.09;;;15.02;55.23
12203;BME280;6164;42.178;24.622;2024-03-23T09:47:49;99945.16;;;15.17;54.69
12203;BME280;6164;42.178;24.622;2024-03-23T09:50:15;99947.31;;;15.28;54.48
12203;BME280;6164;42.178;24.622;2024-03-23T09:52:42;99966.63;;;15.36;53.10
12203;BME280;6164;42.178;24.622;2024-03-23T09:55:08;99964.13;;;15.49;53.46
12203;BME280;6164;42.178;24.622;2024-03-23T09:57:34;99922.31;;;15.64;56.29
12203;BME280;6164;42.178;24.622;2024-03-23T10:00:00;99911.31;;;15.74;56.66
12203;BME280;6164;42.178;24.622;2024-03-23T10:02:27;99919.19;;;15.89;55.45
12203;BME280;6164;42.178;24.622;2024-03-23T10:04:54;99925.09;;;16.12;54.77
12203;BME280;6164;42.178;24.622;2024-03-23T10:07:22;99941.19;;;16.31;53.86
12203;BME280;6164;42.178;24.622;2024-03-23T10:09:49;99942.28;;;16.43;53.09
12203;BME280;6164;42.178;24.622;2024-03-23T10:12:16;99954.50;;;16.59;51.70
12203;BME280;6164;42.178;24.622;2024-03-23T10:14:43;99946.34;;;16.73;53.55
12203;BME280;6164;42.178;24.622;2024-03-23T10:17:12;99948.03;;;16.87;52.52
12203;BME280;6164;42.178;24.622;2024-03-23T10:19:40;99964.44;;;16.84;51.49
12203;BME280;6164;42.178;24.622;2024-03-23T10:22:08;99969.41;;;17.00;51.85
12203;BME280;6164;42.178;24.622;2024-03-23T10:24:34;99984.03;;;17.11;49.94
12203;BME280;6164;42.178;24.622;2024-03-23T10:27:00;99996.97;;;17.14;48.99
12203;BME280;6164;42.178;24.622;2024-03-23T10:29:26;99998.91;;;16.86;50.18
12203;BME280;6164;42.178;24.622;2024-03-23T10:31:53;99955.41;;;16.85;52.97
12203;BME280;6164;42.178;24.622;2024-03-23T10:34:24;99970.63;;;16.91;50.96
12203;BME280;6164;42.178;24.622;2024-03-23T10:36:50;99974.97;;;17.05;50.13
12203;BME280;6164;42.178;24.622;2024-03-23T10:39:19;99961.09;;;17.23;50.94
12203;BME280;6164;42.178;24.622;2024-03-23T10:41:46;99976.66;;;17.13;49.49
12203;BME280;6164;42.178;24.622;2024-03-23T10:44:15;99977.31;;;17.35;49.35
12203;BME280;6164;42.178;24.622;2024-03-23T10:46:42;99990.09;;;17.52;49.05
12203;BME280;6164;42.178;24.622;2024-03-23T10:49:08;99986.41;;;17.60;48.20
12203;BME280;6164;42.178;24.622;2024-03-23T10:51:34;99997.94;;;17.73;49.40
12203;BME280;6164;42.178;24.622;2024-03-23T10:54:02;100007.19;;;17.64;48.31
12203;BME280;6164;42.178;24.622;2024-03-23T10:56:30;99958.91;;;17.79;50.06
12203;BME280;6164;42.178;24.622;2024-03-23T10:58:59;99956.66;;;17.89;49.86
12203;BME280;6164;42.178;24.622;2024-03-23T11:01:28;99966.06;;;18.04;49.10
12203;BME280;6164;42.178;24.622;2024-03-23T11:03:54;99965.66;;;18.14;48.65
12203;BME280;6164;42.178;24.622;2024-03-23T11:09:08;99975.28;;;18.34;47.56
12203;BME280;6164;42.178;24.622;2024-03-23T11:11:55;100014.56;;;18.21;46.14
12203;BME280;6164;42.178;24.622;2024-03-23T11:14:22;99998.09;;;18.30;47.08
12203;BME280;6164;42.178;24.622;2024-03-23T11:16:48;99998.94;;;18.44;47.23
12203;BME280;6164;42.178;24.622;2024-03-23T11:19:34;100007.38;;;18.34;46.27
12203;BME280;6164;42.178;24.622;2024-03-23T11:22:01;99989.69;;;18.47;47.26
12203;BME280;6164;42.178;24.622;2024-03-23T11:24:28;99989.50;;;18.42;46.67
12203;BME280;6164;42.178;24.622;2024-03-23T11:26:53;99963.88;;;18.72;47.31
12203;BME280;6164;42.178;24.622;2024-03-23T11:29:21;99978.09;;;18.72;45.73
12203;BME280;6164;42.178;24.622;2024-03-23T11:31:47;99984.84;;;18.88;45.54
12203;BME280;6164;42.178;24.622;2024-03-23T11:34:14;99990.53;;;19.04;45.16
12203;BME280;6164;42.178;24.622;2024-03-23T11:36:40;100012.06;;;19.22;43.81
12203;BME280;6164;42.178;24.622;2024-03-23T11:39:13;100011.41;;;19.27;45.02
12203;BME280;6164;42.178;24.622;2024-03-23T11:41:46;100004.38;;;19.32;44.56
12203;BME280;6164;42.178;24.622;2024-03-23T11:44:16;99993.84;;;19.37;44.69
12203;BME280;6164;42.178;24.622;2024-03-23T11:46:44;100000.97;;;19.56;44.45
12203;BME280;6164;42.178;24.622;2024-03-23T11:49:19;100016.28;;;19.74;43.81
12203;BME280;6164;42.178;24.622;2024-03-23T11:51:47;100039.53;;;19.80;42.17
12203;BME280;6164;42.178;24.622;2024-03-23T11:54:12;100027.25;;;19.97;43.42
12203;BME280;6164;42.178;24.622;2024-03-23T11:56:39;100051.56;;;19.96;42.12
12203;BME280;6164;42.178;24.622;2024-03-23T11:59:04;100068.59;;;20.08;41.47
12203;BME280;6164;42.178;24.622;2024-03-23T12:01:32;100050.72;;;20.26;42.23
12203;BME280;6164;42.178;24.622;2024-03-23T12:03:59;100042.59;;;20.39;43.57
12203;BME280;6164;42.178;24.622;2024-03-23T12:06:26;100067.69;;;20.45;41.00
12203;BME280;6164;42.178;24.622;2024-03-23T12:08:51;100086.56;;;20.56;40.14
12203;BME280;6164;42.178;24.622;2024-03-23T12:11:18;100106.13;;;20.39;40.59
12203;BME280;6164;42.178;24.622;2024-03-23T12:13:44;100090.03;;;20.39;42.18
12203;BME280;6164;42.178;24.622;2024-03-23T12:16:12;100084.22;;;20.42;41.19
12203;BME280;6164;42.178;24.622;2024-03-23T12:18:37;100086.50;;;20.63;40.70
12203;BME280;6164;42.178;24.622;2024-03-23T12:21:06;100084.22;;;20.84;41.91
12203;BME280;6164;42.178;24.622;2024-03-23T12:23:32;100098.06;;;20.63;40.13
12203;BME280;6164;42.178;24.622;2024-03-23T12:25:59;100114.09;;;20.70;40.11
12203;BME280;6164;42.178;24.622;2024-03-23T12:28:24;100120.00;;;20.78;39.76
12203;BME280;6164;42.178;24.622;2024-03-23T12:30:51;100101.56;;;20.64;39.94
12203;BME280;6164;42.178;24.622;2024-03-23T12:33:17;100117.25;;;20.85;39.43
12203;BME280;6164;42.178;24.622;2024-03-23T12:35:43;100107.97;;;21.06;39.88
12203;BME280;6164;42.178;24.622;2024-03-23T12:38:10;100120.81;;;21.22;39.54
12203;BME280;6164;42.178;24.622;2024-03-23T12:40:37;100147.75;;;21.33;37.34
12203;BME280;6164;42.178;24.622;2024-03-23T12:43:02;100165.88;;;21.38;37.53
12203;BME280;6164;42.178;24.622;2024-03-23T12:45:29;100177.16;;;21.46;37.10
12203;BME280;6164;42.178;24.622;2024-03-23T12:47:54;100195.50;;;21.31;37.05
12203;BME280;6164;42.178;24.622;2024-03-23T12:50:21;100204.66;;;21.42;36.45
12203;BME280;6164;42.178;24.622;2024-03-23T12:52:46;100201.25;;;21.53;36.97
12203;BME280;6164;42.178;24.622;2024-03-23T12:55:14;100228.91;;;21.53;36.37
12203;BME280;6164;42.178;24.622;2024-03-23T12:57:40;100250.75;;;21.21;35.53
12203;BME280;6164;42.178;24.622;2024-03-23T13:00:07;100262.97;;;21.17;35.95
12203;BME280;6164;42.178;24.622;2024-03-23T13:02:34;100233.50;;;21.53;36.94
12203;BME280;6164;42.178;24.622;2024-03-23T13:05:01;100239.47;;;21.73;35.93
12203;BME280;6164;42.178;24.622;2024-03-23T13:07:26;100261.38;;;21.70;34.67
12203;BME280;6164;42.178;24.622;2024-03-23T13:09:53;100277.13;;;21.66;35.07
12203;BME280;6164;42.178;24.622;2024-03-23T13:12:19;100281.41;;;21.56;35.88
12203;BME280;6164;42.178;24.622;2024-03-23T13:14:46;100271.72;;;21.73;35.41
12203;BME280;6164;42.178;24.622;2024-03-23T13:17:12;100271.06;;;21.77;35.43
12203;BME280;6164;42.178;24.622;2024-03-23T13:19:38;100284.88;;;21.81;34.68
12203;BME280;6164;42.178;24.622;2024-03-23T13:22:04;100295.84;;;21.97;35.24
12203;BME280;6164;42.178;24.622;2024-03-23T13:24:30;100303.53;;;22.12;33.82
12203;BME280;6164;42.178;24.622;2024-03-23T13:26:56;100308.53;;;22.27;34.13
12203;BME280;6164;42.178;24.622;2024-03-23T13:29:24;100306.06;;;22.25;34.61
12203;BME280;6164;42.178;24.622;2024-03-23T13:31:50;100317.75;;;22.31;34.05
12203;BME280;6164;42.178;24.622;2024-03-23T13:34:17;100336.59;;;22.31;33.37
12203;BME280;6164;42.178;24.622;2024-03-23T13:36:43;100349.25;;;22.30;33.25
12203;BME280;6164;42.178;24.622;2024-03-23T13:39:09;100353.72;;;22.36;33.39
12203;BME280;6164;42.178;24.622;2024-03-23T13:41:36;100371.84;;;22.41;32.65
12203;BME280;6164;42.178;24.622;2024-03-23T13:44:03;100400.56;;;22.47;32.33
12203;BME280;6164;42.178;24.622;2024-03-23T13:46:30;100423.28;;;22.33;31.43
12203;BME280;6164;42.178;24.622;2024-03-23T13:48:56;100431.13;;;22.34;31.76
12203;BME280;6164;42.178;24.622;2024-03-23T13:51:23;100425.13;;;22.57;32.26